sensor_id;sensor_type;location;lat;lon;timestamp;P1;durP1;ratioP1;P2;durP2;ratioP2
11287;SDS011;5700;50.996;7.044;2023-03-05T00:00:55;7.03;;;2.78;;
11287;SDS011;5700;50.996;7.044;2023-03-05T00:03:56;9.80;;;2.50;;
11287;SDS011;5700;50.996;7.044;2023-03-05T00:06:59;13.23;;;3.72;;
11287;SDS011;5700;50.996;7.044;2023-03-05T00:10:00;5.88;;;2.55;;
11287;SDS011;5700;50.996;7.044;2023-03-05T00:13:03;5.70;;;2.20;;
11287;SDS011;5700;50.996;7.044;2023-03-05T00:16:06;4.97;;;2.22;;
11287;SDS011;5700;50.996;7.044;2023-03-05T00:19:09;6.80;;;1.90;;
11287;SDS011;5700;50.996;7.044;2023-03-05T00:22:12;3.55;;;1.77;;
11287;SDS011;5700;50.996;7.044;2023-03-05T00:25:13;6.75;;;2.05;;
11287;SDS011;5700;50.996;7.044;2023-03-05T00:28:15;5.43;;;2.00;;
11287;SDS011;5700;50.996;7.044;2023-03-05T00:31:16;7.22;;;1.52;;
11287;SDS011;5700;50.996;7.044;2023-03-05T00:34:19;6.93;;;1.90;;
11287;SDS011;5700;50.996;7.044;2023-03-05T00:37:23;8.15;;;2.42;;
11287;SDS011;5700;50.996;7.044;2023-03-05T00:40:25;6.50;;;2.40;;
11287;SDS011;5700;50.996;7.044;2023-03-05T00:43:26;8.48;;;1.67;;
11287;SDS011;5700;50.996;7.044;2023-03-05T00:46:28;6.97;;;1.55;;
11287;SDS011;5700;50.996;7.044;2023-03-05T00:49:29;6.50;;;1.65;;
11287;SDS011;5700;50.996;7.044;2023-03-05T00:52:32;5.43;;;1.48;;
11287;SDS011;5700;50.996;7.044;2023-03-05T00:55:34;2.33;;;1.30;;
11287;SDS011;5700;50.996;7.044;2023-03-05T00:58:36;6.00;;;1.50;;
11287;SDS011;5700;50.996;7.044;2023-03-05T01:01:39;6.28;;;1.58;;
11287;SDS011;5700;50.996;7.044;2023-03-05T01:04:40;9.77;;;1.85;;
11287;SDS011;5700;50.996;7.044;2023-03-05T01:07:46;4.47;;;1.48;;
11287;SDS011;5700;50.996;7.044;2023-03-05T01:10:47;7.20;;;1.75;;
11287;SDS011;5700;50.996;7.044;2023-03-05T01:13:48;8.93;;;2.00;;
11287;SDS011;5700;50.996;7.044;2023-03-05T01:16:50;8.73;;;1.50;;
11287;SDS011;5700;50.996;7.044;2023-03-05T01:19:51;5.68;;;1.60;;
11287;SDS011;5700;50.996;7.044;2023-03-05T01:22:54;3.72;;;1.38;;
11287;SDS011;5700;50.996;7.044;2023-03-05T01:25:58;10.50;;;3.00;;
11287;SDS011;5700;50.996;7.044;2023-03-05T01:29:00;3.03;;;1.45;;
11287;SDS011;5700;50.996;7.044;2023-03-05T01:32:01;4.90;;;2.30;;
11287;SDS011;5700;50.996;7.044;2023-03-05T01:35:03;5.78;;;2.33;;
11287;SDS011;5700;50.996;7.044;2023-03-05T01:38:07;3.38;;;1.65;;
11287;SDS011;5700;50.996;7.044;2023-03-05T01:41:09;7.03;;;1.20;;
11287;SDS011;5700;50.996;7.044;2023-03-05T01:44:17;6.53;;;1.60;;
11287;SDS011;5700;50.996;7.044;2023-03-05T01:47:22;9.45;;;1.67;;
11287;SDS011;5700;50.996;7.044;2023-03-05T01:50:23;6.85;;;1.42;;
11287;SDS011;5700;50.996;7.044;2023-03-05T01:53:27;6.47;;;1.88;;
11287;SDS011;5700;50.996;7.044;2023-03-05T01:56:28;9.10;;;1.33;;
11287;SDS011;5700;50.996;7.044;2023-03-05T01:59:30;7.15;;;1.45;;
11287;SDS011;5700;50.996;7.044;2023-03-05T02:02:32;4.60;;;1.52;;
11287;SDS011;5700;50.996;7.044;2023-03-05T02:05:35;4.45;;;1.38;;
11287;SDS011;5700;50.996;7.044;2023-03-05T02:08:38;5.13;;;1.80;;
11287;SDS011;5700;50.996;7.044;2023-03-05T02:11:40;8.13;;;1.42;;
11287;SDS011;5700;50.996;7.044;2023-03-05T02:14:42;8.85;;;1.75;;
11287;SDS011;5700;50.996;7.044;2023-03-05T02:17:46;5.10;;;1.58;;
11287;SDS011;5700;50.996;7.044;2023-03-05T02:20:48;3.78;;;1.75;;
11287;SDS011;5700;50.996;7.044;2023-03-05T02:23:52;4.80;;;1.90;;
11287;SDS011;5700;50.996;7.044;2023-03-05T02:26:53;5.18;;;1.88;;
11287;SDS011;5700;50.996;7.044;2023-03-05T02:29:54;6.25;;;1.95;;
11287;SDS011;5700;50.996;7.044;2023-03-05T02:32:56;6.68;;;2.03;;
11287;SDS011;5700;50.996;7.044;2023-03-05T02:35:58;7.40;;;2.03;;
11287;SDS011;5700;50.996;7.044;2023-03-05T02:39:00;8.48;;;2.00;;
11287;SDS011;5700;50.996;7.044;2023-03-05T02:42:02;8.98;;;2.50;;
11287;SDS011;5700;50.996;7.044;2023-03-05T02:45:04;8.95;;;1.85;;
11287;SDS011;5700;50.996;7.044;2023-03-05T02:48:06;3.63;;;1.65;;
11287;SDS011;5700;50.996;7.044;2023-03-05T02:51:08;3.33;;;1.30;;
11287;SDS011;5700;50.996;7.044;2023-03-05T02:54:10;3.95;;;1.55;;
11287;SDS011;5700;50.996;7.044;2023-03-05T02:57:12;7.10;;;1.33;;
11287;SDS011;5700;50.996;7.044;2023-03-05T03:00:14;2.85;;;1.25;;
11287;SDS011;5700;50.996;7.044;2023-03-05T03:03:15;6.45;;;1.40;;
11287;SDS011;5700;50.996;7.044;2023-03-05T03:06:17;2.92;;;1.25;;
11287;SDS011;5700;50.996;7.044;2023-03-05T03:09:20;7.15;;;1.70;;
11287;SDS011;5700;50.996;7.044;2023-03-05T03:12:21;4.65;;;1.48;;
11287;SDS011;5700;50.996;7.044;2023-03-05T03:15:22;7.60;;;1.63;;
11287;SDS011;5700;50.996;7.044;2023-03-05T03:18:24;7.13;;;1.40;;
11287;SDS011;5700;50.996;7.044;2023-03-05T03:21:25;8.20;;;1.52;;
11287;SDS011;5700;50.996;7.044;2023-03-05T03:24:29;3.13;;;1.67;;
11287;SDS011;5700;50.996;7.044;2023-03-05T03:27:31;7.05;;;1.58;;
11287;SDS011;5700;50.996;7.044;2023-03-05T03:30:33;4.72;;;1.40;;
11287;SDS011;5700;50.996;7.044;2023-03-05T03:33:34;4.80;;;1.65;;
11287;SDS011;5700;50.996;7.044;2023-03-05T03:36:36;5.60;;;1.27;;
11287;SDS011;5700;50.996;7.044;2023-03-05T03:39:38;3.25;;;1.08;;
11287;SDS011;5700;50.996;7.044;2023-03-05T03:42:40;4.28;;;1.40;;
11287;SDS011;5700;50.996;7.044;2023-03-05T03:45:41;5.93;;;1.55;;
11287;SDS011;5700;50.996;7.044;2023-03-05T03:48:43;4.95;;;1.25;;
11287;SDS011;5700;50.996;7.044;2023-03-05T03:51:44;2.85;;;1.20;;
11287;SDS011;5700;50.996;7.044;2023-03-05T03:54:48;8.05;;;1.58;;
11287;SDS011;5700;50.996;7.044;2023-03-05T03:57:51;7.13;;;1.77;;
11287;SDS011;5700;50.996;7.044;2023-03-05T04:00:52;3.75;;;1.38;;
11287;SDS011;5700;50.996;7.044;2023-03-05T04:03:54;6.57;;;1.55;;
11287;SDS011;5700;50.996;7.044;2023-03-05T04:06:55;3.90;;;1.48;;
11287;SDS011;5700;50.996;7.044;2023-03-05T04:09:58;2.85;;;1.17;;
11287;SDS011;5700;50.996;7.044;2023-03-05T04:12:59;2.35;;;1.30;;
11287;SDS011;5700;50.996;7.044;2023-03-05T04:16:00;5.20;;;1.27;;
11287;SDS011;5700;50.996;7.044;2023-03-05T04:19:02;2.60;;;1.08;;
11287;SDS011;5700;50.996;7.044;2023-03-05T04:22:03;4.95;;;1.77;;
11287;SDS011;5700;50.996;7.044;2023-03-05T04:25:06;5.65;;;1.30;;
11287;SDS011;5700;50.996;7.044;2023-03-05T04:28:08;4.47;;;1.50;;
11287;SDS011;5700;50.996;7.044;2023-03-05T04:31:10;11.65;;;2.67;;
11287;SDS011;5700;50.996;7.044;2023-03-05T04:34:11;9.18;;;2.47;;
11287;SDS011;5700;50.996;7.044;2023-03-05T04:37:12;7.82;;;1.70;;
11287;SDS011;5700;50.996;7.044;2023-03-05T04:40:15;4.68;;;2.03;;
11287;SDS011;5700;50.996;7.044;2023-03-05T04:43:17;7.00;;;2.00;;
11287;SDS011;5700;50.996;7.044;2023-03-05T04:46:18;5.80;;;2.30;;
11287;SDS011;5700;50.996;7.044;2023-03-05T04:49:20;6.40;;;2.05;;
11287;SDS011;5700;50.996;7.044;2023-03-05T04:52:21;5.13;;;1.60;;
11287;SDS011;5700;50.996;7.044;2023-03-05T04:55:24;6.75;;;2.00;;
11287;SDS011;5700;50.996;7.044;2023-03-05T04:58:26;4.28;;;1.77;;
11287;SDS011;5700;50.996;7.044;2023-03-05T05:01:27;4.05;;;1.45;;
11287;SDS011;5700;50.996;7.044;2023-03-05T05:04:29;6.88;;;1.27;;
11287;SDS011;5700;50.996;7.044;2023-03-05T05:07:30;2.97;;;1.30;;
11287;SDS011;5700;50.996;7.044;2023-03-05T05:10:34;3.40;;;1.30;;
11287;SDS011;5700;50.996;7.044;2023-03-05T05:13:37;4.43;;;1.23;;
11287;SDS011;5700;50.996;7.044;2023-03-05T05:16:38;6.10;;;1.27;;
11287;SDS011;5700;50.996;7.044;2023-03-05T05:19:40;4.78;;;1.42;;
11287;SDS011;5700;50.996;7.044;2023-03-05T05:22:41;4.10;;;1.73;;
11287;SDS011;5700;50.996;7.044;2023-03-05T05:25:44;3.42;;;1.40;;
11287;SDS011;5700;50.996;7.044;2023-03-05T05:28:46;4.72;;;1.60;;
11287;SDS011;5700;50.996;7.044;2023-03-05T05:31:48;4.43;;;1.33;;
11287;SDS011;5700;50.996;7.044;2023-03-05T05:34:52;3.22;;;1.33;;
11287;SDS011;5700;50.996;7.044;2023-03-05T05:37:54;4.55;;;1.27;;
11287;SDS011;5700;50.996;7.044;2023-03-05T05:41:01;5.47;;;1.40;;
11287;SDS011;5700;50.996;7.044;2023-03-05T05:44:04;3.60;;;1.10;;
11287;SDS011;5700;50.996;7.044;2023-03-05T05:47:05;2.95;;;1.27;;
11287;SDS011;5700;50.996;7.044;2023-03-05T05:50:07;2.70;;;1.25;;
11287;SDS011;5700;50.996;7.044;2023-03-05T05:53:09;5.03;;;1.55;;
11287;SDS011;5700;50.996;7.044;2023-03-05T05:56:12;4.10;;;1.75;;
11287;SDS011;5700;50.996;7.044;2023-03-05T05:59:15;6.38;;;1.60;;
11287;SDS011;5700;50.996;7.044;2023-03-05T06:02:16;7.85;;;1.50;;
11287;SDS011;5700;50.996;7.044;2023-03-05T06:05:18;4.53;;;1.48;;
11287;SDS011;5700;50.996;7.044;2023-03-05T06:08:19;3.90;;;1.45;;
11287;SDS011;5700;50.996;7.044;2023-03-05T06:11:22;3.50;;;1.58;;
11287;SDS011;5700;50.996;7.044;2023-03-05T06:14:23;3.83;;;1.67;;
11287;SDS011;5700;50.996;7.044;2023-03-05T06:17:25;4.35;;;2.00;;
11287;SDS011;5700;50.996;7.044;2023-03-05T06:20:28;3.45;;;1.77;;
11287;SDS011;5700;50.996;7.044;2023-03-05T06:23:29;7.40;;;2.00;;
11287;SDS011;5700;50.996;7.044;2023-03-05T06:26:32;4.90;;;1.85;;
11287;SDS011;5700;50.996;7.044;2023-03-05T06:29:33;6.00;;;1.98;;
11287;SDS011;5700;50.996;7.044;2023-03-05T06:32:35;6.97;;;1.70;;
11287;SDS011;5700;50.996;7.044;2023-03-05T06:35:37;7.70;;;1.42;;
11287;SDS011;5700;50.996;7.044;2023-03-05T06:38:39;4.07;;;2.03;;
11287;SDS011;5700;50.996;7.044;2023-03-05T06:41:42;3.67;;;1.60;;
11287;SDS011;5700;50.996;7.044;2023-03-05T06:44:44;3.38;;;1.55;;
11287;SDS011;5700;50.996;7.044;2023-03-05T06:47:46;9.93;;;1.77;;
11287;SDS011;5700;50.996;7.044;2023-03-05T06:50:48;8.18;;;1.45;;
11287;SDS011;5700;50.996;7.044;2023-03-05T06:53:49;4.53;;;1.65;;
11287;SDS011;5700;50.996;7.044;2023-03-05T06:56:53;4.68;;;1.38;;
11287;SDS011;5700;50.996;7.044;2023-03-05T06:59:54;6.80;;;0.98;;
11287;SDS011;5700;50.996;7.044;2023-03-05T07:02:55;7.63;;;1.17;;
11287;SDS011;5700;50.996;7.044;2023-03-05T07:05:57;3.85;;;1.33;;
11287;SDS011;5700;50.996;7.044;2023-03-05T07:08:58;3.88;;;1.33;;
11287;SDS011;5700;50.996;7.044;2023-03-05T07:12:02;1.98;;;0.98;;
11287;SDS011;5700;50.996;7.044;2023-03-05T07:15:04;4.30;;;1.02;;
11287;SDS011;5700;50.996;7.044;2023-03-05T07:18:06;4.38;;;1.27;;
11287;SDS011;5700;50.996;7.044;2023-03-05T07:21:08;3.53;;;1.00;;
11287;SDS011;5700;50.996;7.044;2023-03-05T07:24:12;1.70;;;1.15;;
11287;SDS011;5700;50.996;7.044;2023-03-05T07:27:15;1.73;;;1.20;;
11287;SDS011;5700;50.996;7.044;2023-03-05T07:30:17;6.25;;;1.50;;
11287;SDS011;5700;50.996;7.044;2023-03-05T07:33:18;4.57;;;1.08;;
11287;SDS011;5700;50.996;7.044;2023-03-05T07:36:20;1.95;;;1.27;;
11287;SDS011;5700;50.996;7.044;2023-03-05T07:39:21;5.68;;;1.33;;
11287;SDS011;5700;50.996;7.044;2023-03-05T07:42:24;1.95;;;1.15;;
11287;SDS011;5700;50.996;7.044;2023-03-05T07:45:25;2.25;;;0.90;;
11287;SDS011;5700;50.996;7.044;2023-03-05T07:48:27;3.60;;;1.20;;
11287;SDS011;5700;50.996;7.044;2023-03-05T07:51:28;2.72;;;1.17;;
11287;SDS011;5700;50.996;7.044;2023-03-05T07:54:29;1.65;;;0.75;;
11287;SDS011;5700;50.996;7.044;2023-03-05T07:57:32;2.60;;;1.20;;
11287;SDS011;5700;50.996;7.044;2023-03-05T08:00:34;3.47;;;1.50;;
11287;SDS011;5700;50.996;7.044;2023-03-05T08:03:35;3.60;;;1.13;;
11287;SDS011;5700;50.996;7.044;2023-03-05T08:06:38;7.13;;;2.03;;
11287;SDS011;5700;50.996;7.044;2023-03-05T08:09:40;3.08;;;1.73;;
11287;SDS011;5700;50.996;7.044;2023-03-05T08:12:44;2.22;;;1.15;;
11287;SDS011;5700;50.996;7.044;2023-03-05T08:15:45;5.10;;;1.65;;
11287;SDS011;5700;50.996;7.044;2023-03-05T08:18:48;3.53;;;1.33;;
11287;SDS011;5700;50.996;7.044;2023-03-05T08:21:49;4.82;;;1.55;;
11287;SDS011;5700;50.996;7.044;2023-03-05T08:24:50;3.58;;;1.20;;
11287;SDS011;5700;50.996;7.044;2023-03-05T08:27:53;2.15;;;1.30;;
11287;SDS011;5700;50.996;7.044;2023-03-05T08:30:54;6.22;;;1.40;;
11287;SDS011;5700;50.996;7.044;2023-03-05T08:33:57;6.15;;;1.35;;
11287;SDS011;5700;50.996;7.044;2023-03-05T08:36:59;1.45;;;1.00;;
11287;SDS011;5700;50.996;7.044;2023-03-05T08:40:01;3.30;;;1.30;;
11287;SDS011;5700;50.996;7.044;2023-03-05T08:43:03;3.90;;;1.48;;
11287;SDS011;5700;50.996;7.044;2023-03-05T08:46:06;4.03;;;1.85;;
11287;SDS011;5700;50.996;7.044;2023-03-05T08:49:08;6.68;;;2.05;;
11287;SDS011;5700;50.996;7.044;2023-03-05T08:52:10;4.40;;;1.30;;
11287;SDS011;5700;50.996;7.044;2023-03-05T08:55:11;9.65;;;2.13;;
11287;SDS011;5700;50.996;7.044;2023-03-05T08:58:14;5.65;;;1.60;;
11287;SDS011;5700;50.996;7.044;2023-03-05T09:01:15;1.83;;;1.02;;
11287;SDS011;5700;50.996;7.044;2023-03-05T09:04:17;4.72;;;2.03;;
11287;SDS011;5700;50.996;7.044;2023-03-05T09:07:18;3.60;;;2.03;;
11287;SDS011;5700;50.996;7.044;2023-03-05T09:10:20;5.57;;;2.00;;
11287;SDS011;5700;50.996;7.044;2023-03-05T09:13:22;7.03;;;1.83;;
11287;SDS011;5700;50.996;7.044;2023-03-05T09:16:24;5.45;;;1.75;;
11287;SDS011;5700;50.996;7.044;2023-03-05T09:19:25;7.10;;;1.85;;
11287;SDS011;5700;50.996;7.044;2023-03-05T09:22:27;5.18;;;2.47;;
11287;SDS011;5700;50.996;7.044;2023-03-05T09:25:29;7.72;;;1.75;;
11287;SDS011;5700;50.996;7.044;2023-03-05T09:28:31;5.85;;;1.83;;
11287;SDS011;5700;50.996;7.044;2023-03-05T09:31:33;3.20;;;1.75;;
11287;SDS011;5700;50.996;7.044;2023-03-05T09:34:34;4.13;;;1.83;;
11287;SDS011;5700;50.996;7.044;2023-03-05T09:37:36;6.30;;;1.92;;
11287;SDS011;5700;50.996;7.044;2023-03-05T09:40:40;4.18;;;1.52;;
11287;SDS011;5700;50.996;7.044;2023-03-05T09:43:50;3.67;;;1.58;;
11287;SDS011;5700;50.996;7.044;2023-03-05T09:47:00;5.72;;;1.63;;
11287;SDS011;5700;50.996;7.044;2023-03-05T09:50:11;4.68;;;2.15;;
11287;SDS011;5700;50.996;7.044;2023-03-05T09:53:25;3.88;;;1.75;;
11287;SDS011;5700;50.996;7.044;2023-03-05T09:56:34;6.28;;;1.80;;
11287;SDS011;5700;50.996;7.044;2023-03-05T09:59:39;5.28;;;1.92;;
11287;SDS011;5700;50.996;7.044;2023-03-05T10:02:44;4.72;;;2.00;;
11287;SDS011;5700;50.996;7.044;2023-03-05T10:05:52;3.85;;;1.75;;
11287;SDS011;5700;50.996;7.044;2023-03-05T10:09:01;3.85;;;1.90;;
11287;SDS011;5700;50.996;7.044;2023-03-05T10:12:05;5.57;;;2.58;;
11287;SDS011;5700;50.996;7.044;2023-03-05T10:15:11;4.82;;;2.65;;
11287;SDS011;5700;50.996;7.044;2023-03-05T10:18:16;7.50;;;2.30;;
11287;SDS011;5700;50.996;7.044;2023-03-05T10:21:23;11.93;;;3.40;;
11287;SDS011;5700;50.996;7.044;2023-03-05T10:24:31;6.18;;;3.53;;
11287;SDS011;5700;50.996;7.044;2023-03-05T10:27:41;7.10;;;3.95;;
11287;SDS011;5700;50.996;7.044;2023-03-05T10:30:53;7.43;;;3.58;;
11287;SDS011;5700;50.996;7.044;2023-03-05T10:34:05;6.05;;;3.53;;
11287;SDS011;5700;50.996;7.044;2023-03-05T10:37:20;7.78;;;4.07;;
11287;SDS011;5700;50.996;7.044;2023-03-05T10:40:34;9.68;;;4.40;;
11287;SDS011;5700;50.996;7.044;2023-03-05T10:43:38;15.77;;;6.65;;
11287;SDS011;5700;50.996;7.044;2023-03-05T10:46:43;10.70;;;6.10;;
11287;SDS011;5700;50.996;7.044;2023-03-05T10:49:47;8.27;;;4.95;;
11287;SDS011;5700;50.996;7.044;2023-03-05T10:52:51;9.20;;;4.50;;
11287;SDS011;5700;50.996;7.044;2023-03-05T10:56:01;9.50;;;5.05;;
11287;SDS011;5700;50.996;7.044;2023-03-05T10:59:03;9.93;;;5.95;;
11287;SDS011;5700;50.996;7.044;2023-03-05T11:02:07;14.07;;;5.57;;
11287;SDS011;5700;50.996;7.044;2023-03-05T11:05:13;12.60;;;6.78;;
11287;SDS011;5700;50.996;7.044;2023-03-05T11:08:36;15.25;;;6.93;;
11287;SDS011;5700;50.996;7.044;2023-03-05T11:11:38;12.25;;;6.45;;
11287;SDS011;5700;50.996;7.044;2023-03-05T11:14:40;14.10;;;7.30;;
11287;SDS011;5700;50.996;7.044;2023-03-05T11:17:44;12.38;;;6.50;;
11287;SDS011;5700;50.996;7.044;2023-03-05T11:20:47;13.15;;;6.97;;
11287;SDS011;5700;50.996;7.044;2023-03-05T11:27:20;13.02;;;6.25;;
11287;SDS011;5700;50.996;7.044;2023-03-05T11:30:24;13.02;;;6.15;;
11287;SDS011;5700;50.996;7.044;2023-03-05T11:33:29;13.13;;;6.28;;
11287;SDS011;5700;50.996;7.044;2023-03-05T11:36:31;11.40;;;6.93;;
11287;SDS011;5700;50.996;7.044;2023-03-05T11:39:33;10.10;;;6.28;;
11287;SDS011;5700;50.996;7.044;2023-03-05T11:42:37;11.70;;;6.63;;
11287;SDS011;5700;50.996;7.044;2023-03-05T11:45:40;11.98;;;6.68;;
11287;SDS011;5700;50.996;7.044;2023-03-05T11:48:44;11.93;;;7.55;;
11287;SDS011;5700;50.996;7.044;2023-03-05T11:51:49;11.85;;;6.85;;
11287;SDS011;5700;50.996;7.044;2023-03-05T11:54:58;11.90;;;7.10;;
11287;SDS011;5700;50.996;7.044;2023-03-05T11:58:10;14.93;;;7.43;;
11287;SDS011;5700;50.996;7.044;2023-03-05T12:01:22;11.88;;;6.85;;
11287;SDS011;5700;50.996;7.044;2023-03-05T12:04:26;13.75;;;7.80;;
11287;SDS011;5700;50.996;7.044;2023-03-05T12:07:29;11.88;;;7.22;;
11287;SDS011;5700;50.996;7.044;2023-03-05T12:10:34;12.55;;;7.28;;
11287;SDS011;5700;50.996;7.044;2023-03-05T12:13:36;16.73;;;7.72;;
11287;SDS011;5700;50.996;7.044;2023-03-05T12:16:42;14.90;;;7.90;;
11287;SDS011;5700;50.996;7.044;2023-03-05T12:19:49;14.18;;;7.20;;
11287;SDS011;5700;50.996;7.044;2023-03-05T12:22:53;15.38;;;8.07;;
11287;SDS011;5700;50.996;7.044;2023-03-05T12:25:57;14.45;;;7.60;;
11287;SDS011;5700;50.996;7.044;2023-03-05T12:29:00;17.63;;;7.72;;
11287;SDS011;5700;50.996;7.044;2023-03-05T12:32:02;12.98;;;7.05;;
11287;SDS011;5700;50.996;7.044;2023-03-05T12:35:17;13.88;;;7.13;;
11287;SDS011;5700;50.996;7.044;2023-03-05T12:38:30;16.85;;;7.70;;
11287;SDS011;5700;50.996;7.044;2023-03-05T12:41:33;11.68;;;6.18;;
11287;SDS011;5700;50.996;7.044;2023-03-05T12:44:36;9.63;;;5.40;;
11287;SDS011;5700;50.996;7.044;2023-03-05T12:47:39;9.63;;;5.57;;
11287;SDS011;5700;50.996;7.044;2023-03-05T12:53:51;10.23;;;4.90;;
11287;SDS011;5700;50.996;7.044;2023-03-05T12:56:54;12.43;;;6.07;;
11287;SDS011;5700;50.996;7.044;2023-03-05T12:59:57;9.95;;;5.28;;
11287;SDS011;5700;50.996;7.044;2023-03-05T13:03:01;13.70;;;5.60;;
11287;SDS011;5700;50.996;7.044;2023-03-05T13:06:05;17.52;;;8.35;;
11287;SDS011;5700;50.996;7.044;2023-03-05T13:09:11;10.10;;;4.93;;
11287;SDS011;5700;50.996;7.044;2023-03-05T13:12:16;11.85;;;5.10;;
11287;SDS011;5700;50.996;7.044;2023-03-05T13:15:18;7.90;;;3.92;;
11287;SDS011;5700;50.996;7.044;2023-03-05T13:18:20;9.18;;;3.75;;
11287;SDS011;5700;50.996;7.044;2023-03-05T13:21:24;5.32;;;3.20;;
11287;SDS011;5700;50.996;7.044;2023-03-05T13:24:28;7.32;;;3.65;;
11287;SDS011;5700;50.996;7.044;2023-03-05T13:27:31;6.80;;;3.17;;
11287;SDS011;5700;50.996;7.044;2023-03-05T13:30:33;6.30;;;3.05;;
11287;SDS011;5700;50.996;7.044;2023-03-05T13:33:34;5.95;;;2.67;;
11287;SDS011;5700;50.996;7.044;2023-03-05T13:36:37;5.28;;;2.58;;
11287;SDS011;5700;50.996;7.044;2023-03-05T13:39:41;5.00;;;2.53;;
11287;SDS011;5700;50.996;7.044;2023-03-05T13:42:47;4.30;;;2.63;;
11287;SDS011;5700;50.996;7.044;2023-03-05T13:45:52;3.00;;;2.10;;
11287;SDS011;5700;50.996;7.044;2023-03-05T13:48:55;3.55;;;2.13;;
11287;SDS011;5700;50.996;7.044;2023-03-05T13:51:58;3.25;;;2.08;;
11287;SDS011;5700;50.996;7.044;2023-03-05T13:55:01;4.85;;;2.17;;
11287;SDS011;5700;50.996;7.044;2023-03-05T13:58:03;5.28;;;2.58;;
11287;SDS011;5700;50.996;7.044;2023-03-05T14:01:09;3.72;;;2.03;;
11287;SDS011;5700;50.996;7.044;2023-03-05T14:04:17;4.65;;;2.38;;
11287;SDS011;5700;50.996;7.044;2023-03-05T14:07:26;2.90;;;1.88;;
11287;SDS011;5700;50.996;7.044;2023-03-05T14:10:31;7.68;;;2.17;;
11287;SDS011;5700;50.996;7.044;2023-03-05T14:13:34;5.18;;;1.98;;
11287;SDS011;5700;50.996;7.044;2023-03-05T14:16:35;2.95;;;1.80;;
11287;SDS011;5700;50.996;7.044;2023-03-05T14:19:37;5.00;;;2.20;;
11287;SDS011;5700;50.996;7.044;2023-03-05T14:22:41;4.00;;;2.13;;
11287;SDS011;5700;50.996;7.044;2023-03-05T14:25:44;8.50;;;2.45;;
11287;SDS011;5700;50.996;7.044;2023-03-05T14:28:49;3.80;;;2.25;;
11287;SDS011;5700;50.996;7.044;2023-03-05T14:31:51;3.72;;;2.47;;
11287;SDS011;5700;50.996;7.044;2023-03-05T14:34:55;6.45;;;3.38;;
11287;SDS011;5700;50.996;7.044;2023-03-05T14:37:59;6.70;;;3.08;;
11287;SDS011;5700;50.996;7.044;2023-03-05T14:44:19;6.35;;;3.25;;
11287;SDS011;5700;50.996;7.044;2023-03-05T14:47:24;7.13;;;4.10;;
11287;SDS011;5700;50.996;7.044;2023-03-05T14:50:27;7.95;;;4.22;;
11287;SDS011;5700;50.996;7.044;2023-03-05T14:53:37;7.45;;;4.40;;
11287;SDS011;5700;50.996;7.044;2023-03-05T14:56:48;8.32;;;4.03;;
11287;SDS011;5700;50.996;7.044;2023-03-05T14:59:56;7.00;;;3.88;;
11287;SDS011;5700;50.996;7.044;2023-03-05T15:02:57;7.70;;;4.07;;
11287;SDS011;5700;50.996;7.044;2023-03-05T15:05:59;11.40;;;4.13;;
11287;SDS011;5700;50.996;7.044;2023-03-05T15:09:02;9.60;;;4.70;;
11287;SDS011;5700;50.996;7.044;2023-03-05T15:12:04;9.43;;;4.57;;
11287;SDS011;5700;50.996;7.044;2023-03-05T15:15:07;8.98;;;4.88;;
11287;SDS011;5700;50.996;7.044;2023-03-05T15:18:09;9.68;;;6.32;;
11287;SDS011;5700;50.996;7.044;2023-03-05T15:21:12;8.57;;;5.60;;
11287;SDS011;5700;50.996;7.044;2023-03-05T15:24:15;7.85;;;4.32;;
11287;SDS011;5700;50.996;7.044;2023-03-05T15:27:16;6.80;;;3.35;;
11287;SDS011;5700;50.996;7.044;2023-03-05T15:30:20;5.38;;;3.15;;
11287;SDS011;5700;50.996;7.044;2023-03-05T15:33:23;6.45;;;3.70;;
11287;SDS011;5700;50.996;7.044;2023-03-05T15:36:26;7.53;;;3.78;;
11287;SDS011;5700;50.996;7.044;2023-03-05T15:39:29;6.63;;;3.92;;
11287;SDS011;5700;50.996;7.044;2023-03-05T15:42:30;7.03;;;4.15;;
11287;SDS011;5700;50.996;7.044;2023-03-05T15:45:31;10.20;;;4.65;;
11287;SDS011;5700;50.996;7.044;2023-03-05T15:48:33;7.07;;;4.00;;
11287;SDS011;5700;50.996;7.044;2023-03-05T15:51:34;9.13;;;4.82;;
11287;SDS011;5700;50.996;7.044;2023-03-05T15:54:37;9.05;;;4.60;;
11287;SDS011;5700;50.996;7.044;2023-03-05T15:57:41;11.75;;;6.13;;
11287;SDS011;5700;50.996;7.044;2023-03-05T16:00:43;9.20;;;5.43;;
11287;SDS011;5700;50.996;7.044;2023-03-05T16:03:46;10.18;;;4.90;;
11287;SDS011;5700;50.996;7.044;2023-03-05T16:06:47;8.90;;;4.80;;
11287;SDS011;5700;50.996;7.044;2023-03-05T16:09:51;9.82;;;4.80;;
11287;SDS011;5700;50.996;7.044;2023-03-05T16:12:54;9.80;;;4.63;;
11287;SDS011;5700;50.996;7.044;2023-03-05T16:15:56;6.75;;;4.15;;
11287;SDS011;5700;50.996;7.044;2023-03-05T16:18:58;8.32;;;4.30;;
11287;SDS011;5700;50.996;7.044;2023-03-05T16:22:00;10.55;;;6.05;;
11287;SDS011;5700;50.996;7.044;2023-03-05T16:25:03;11.95;;;5.78;;
11287;SDS011;5700;50.996;7.044;2023-03-05T16:28:04;16.17;;;7.60;;
11287;SDS011;5700;50.996;7.044;2023-03-05T16:31:06;50.40;;;24.42;;
11287;SDS011;5700;50.996;7.044;2023-03-05T16:34:07;35.03;;;17.90;;
11287;SDS011;5700;50.996;7.044;2023-03-05T16:37:09;21.13;;;10.95;;
11287;SDS011;5700;50.996;7.044;2023-03-05T16:40:12;12.13;;;7.47;;
11287;SDS011;5700;50.996;7.044;2023-03-05T16:43:13;8.52;;;5.00;;
11287;SDS011;5700;50.996;7.044;2023-03-05T16:46:15;11.55;;;6.57;;
11287;SDS011;5700;50.996;7.044;2023-03-05T16:49:17;10.88;;;5.70;;
11287;SDS011;5700;50.996;7.044;2023-03-05T16:52:19;10.75;;;5.93;;
11287;SDS011;5700;50.996;7.044;2023-03-05T16:55:22;9.50;;;6.10;;
11287;SDS011;5700;50.996;7.044;2023-03-05T16:58:24;11.40;;;6.78;;
11287;SDS011;5700;50.996;7.044;2023-03-05T17:01:25;10.40;;;5.65;;
11287;SDS011;5700;50.996;7.044;2023-03-05T17:04:29;9.35;;;5.85;;
11287;SDS011;5700;50.996;7.044;2023-03-05T17:07:30;13.45;;;8.02;;
11287;SDS011;5700;50.996;7.044;2023-03-05T17:10:33;11.30;;;6.85;;
11287;SDS011;5700;50.996;7.044;2023-03-05T17:13:35;13.02;;;7.07;;
11287;SDS011;5700;50.996;7.044;2023-03-05T17:16:36;11.32;;;6.65;;
11287;SDS011;5700;50.996;7.044;2023-03-05T17:19:38;12.57;;;7.07;;
11287;SDS011;5700;50.996;7.044;2023-03-05T17:22:39;35.67;;;16.00;;
11287;SDS011;5700;50.996;7.044;2023-03-05T17:25:42;21.08;;;10.98;;
11287;SDS011;5700;50.996;7.044;2023-03-05T17:28:43;24.58;;;14.10;;
11287;SDS011;5700;50.996;7.044;2023-03-05T17:31:45;13.73;;;8.10;;
11287;SDS011;5700;50.996;7.044;2023-03-05T17:34:51;15.90;;;8.77;;
11287;SDS011;5700;50.996;7.044;2023-03-05T17:37:53;14.02;;;8.52;;
11287;SDS011;5700;50.996;7.044;2023-03-05T17:40:56;16.35;;;8.48;;
11287;SDS011;5700;50.996;7.044;2023-03-05T17:43:57;14.10;;;7.20;;
11287;SDS011;5700;50.996;7.044;2023-03-05T17:46:58;13.45;;;7.50;;
11287;SDS011;5700;50.996;7.044;2023-03-05T17:50:00;12.90;;;7.25;;
11287;SDS011;5700;50.996;7.044;2023-03-05T17:53:02;11.45;;;7.28;;
11287;SDS011;5700;50.996;7.044;2023-03-05T17:56:06;12.20;;;7.07;;
11287;SDS011;5700;50.996;7.044;2023-03-05T17:59:08;12.50;;;7.57;;
11287;SDS011;5700;50.996;7.044;2023-03-05T18:02:10;15.60;;;8.27;;
11287;SDS011;5700;50.996;7.044;2023-03-05T18:05:11;15.52;;;7.28;;
11287;SDS011;5700;50.996;7.044;2023-03-05T18:08:13;12.82;;;6.85;;
11287;SDS011;5700;50.996;7.044;2023-03-05T18:11:16;10.80;;;6.57;;
11287;SDS011;5700;50.996;7.044;2023-03-05T18:14:18;10.93;;;5.93;;
11287;SDS011;5700;50.996;7.044;2023-03-05T18:17:19;9.63;;;5.65;;
11287;SDS011;5700;50.996;7.044;2023-03-05T18:20:23;9.73;;;5.65;;
11287;SDS011;5700;50.996;7.044;2023-03-05T18:23:27;8.15;;;5.22;;
11287;SDS011;5700;50.996;7.044;2023-03-05T18:26:30;10.40;;;5.78;;
11287;SDS011;5700;50.996;7.044;2023-03-05T18:29:31;11.50;;;5.20;;
11287;SDS011;5700;50.996;7.044;2023-03-05T18:32:32;7.93;;;5.07;;
11287;SDS011;5700;50.996;7.044;2023-03-05T18:35:35;7.93;;;4.82;;
11287;SDS011;5700;50.996;7.044;2023-03-05T18:38:36;12.60;;;5.05;;
11287;SDS011;5700;50.996;7.044;2023-03-05T18:41:39;8.93;;;4.97;;
11287;SDS011;5700;50.996;7.044;2023-03-05T18:44:41;7.60;;;4.13;;